Time;durP1;ratioP1;P1;durP2;ratioP2;P2;SDS_P1;SDS_P2;PMS_P1;PMS_P2;Temp;Humidity;BMP_temperature;BMP_pressure;BME280_temperature;BME280_humidity;BME280_pressure;Samples;Min_cycle;Max_cycle;Signal;HPM_P1;HPM_P2
2021/12/29 00:00:51;;;;;;;8.30;2.27;;;;;;;5.56;100.00;94809.47;4995734;28;20523;-81
2021/12/29 00:14:18;;;;;;;12.93;2.47;;;;;;;5.50;100.00;94831.81;4979090;28;20070;-81
2021/12/29 00:17:03;;;;;;;12.90;1.97;;;;;;;5.48;100.00;94843.38;4966595;28;20050;-81
2021/12/29 00:20:22;;;;;;;8.07;1.83;;;;;;;5.46;100.00;94850.53;4989453;28;20092;-86
2021/12/29 00:23:18;;;;;;;7.73;1.57;;;;;;;5.50;100.00;94857.03;4960514;28;20588;-87
2021/12/29 00:30:13;;;;;;;13.47;2.30;;;;;;;5.47;100.00;94867.81;4922297;29;20059;-87
2021/12/29 00:41:23;;;;;;;9.43;2.40;;;;;;;5.49;100.00;94886.72;5045919;28;20075;-87
2021/12/29 00:44:20;;;;;;;9.20;1.70;;;;;;;5.46;100.00;94887.03;4973284;28;20049;-88
2021/12/29 00:47:02;;;;;;;10.93;2.03;;;;;;;5.48;100.00;94888.50;5044207;28;20064;-87
2021/12/29 00:49:33;;;;;;;7.33;1.67;;;;;;;5.52;100.00;94881.16;5027577;28;20033;-88
2021/12/29 00:52:01;;;;;;;7.73;1.80;;;;;;;5.55;100.00;94899.09;5015199;28;20300;-88
2021/12/29 00:54:28;;;;;;;10.70;1.93;;;;;;;5.49;100.00;94897.94;5018102;28;20148;-88
2021/12/29 00:56:54;;;;;;;11.33;2.07;;;;;;;5.54;100.00;94910.53;5030790;28;20038;-88
2021/12/29 00:59:19;;;;;;;9.83;1.67;;;;;;;5.54;100.00;94915.75;5020273;28;20145;-87
2021/12/29 01:01:47;;;;;;;8.73;2.00;;;;;;;5.53;100.00;94927.13;5030558;28;20462;-87
2021/12/29 01:04:14;;;;;;;11.53;1.70;;;;;;;5.51;100.00;94916.06;5014441;28;20698;-86
2021/12/29 01:06:40;;;;;;;10.63;1.60;;;;;;;5.50;100.00;94938.72;5025139;28;20040;-87
2021/12/29 01:09:05;;;;;;;11.70;1.60;;;;;;;5.51;100.00;94942.13;5040230;28;20040;-88
2021/12/29 01:11:31;;;;;;;7.60;1.47;;;;;;;5.52;100.00;94948.97;5032771;28;20036;-87
2021/12/29 01:13:57;;;;;;;8.43;1.40;;;;;;;5.53;100.00;94955.81;5011249;28;20057;-87
2021/12/29 01:19:00;;;;;;;7.37;2.10;;;;;;;5.49;100.00;94964.94;5034535;28;20068;-86
2021/12/29 01:21:27;;;;;;;8.03;2.07;;;;;;;5.48;100.00;94961.50;5026940;28;20029;-87
2021/12/29 01:23:52;;;;;;;15.60;1.80;;;;;;;5.47;100.00;94972.91;5016440;28;20039;-86
2021/12/29 01:26:21;;;;;;;7.37;1.23;;;;;;;5.44;100.00;94974.03;5022490;28;20116;-88
2021/12/29 01:28:49;;;;;;;8.10;1.43;;;;;;;5.44;100.00;94983.66;5056232;28;20036;-86
2021/12/29 01:31:15;;;;;;;10.63;1.87;;;;;;;5.41;100.00;94976.97;5021378;28;20037;-86
2021/12/29 01:33:41;;;;;;;10.53;1.40;;;;;;;5.40;100.00;94988.38;5052638;28;21201;-86
2021/12/29 01:36:07;;;;;;;7.70;1.40;;;;;;;5.44;100.00;94994.09;5018704;28;20036;-87
2021/12/29 01:38:32;;;;;;;13.60;1.60;;;;;;;5.49;100.00;95002.25;5026163;28;20080;-87
2021/12/29 01:40:58;;;;;;;8.83;1.07;;;;;;;5.46;100.00;95001.75;5029624;28;20044;-87
2021/12/29 01:43:25;;;;;;;10.57;1.87;;;;;;;5.47;100.00;95000.78;5016823;28;20034;-88
2021/12/29 01:45:53;;;;;;;9.23;1.37;;;;;;;5.43;100.00;95003.72;5015990;28;20055;-88
2021/12/29 01:48:19;;;;;;;6.80;1.37;;;;;;;5.47;100.00;95000.78;5027028;28;20504;-88
2021/12/29 01:50:49;;;;;;;8.20;1.13;;;;;;;5.49;100.00;94998.81;5024770;28;20032;-87
2021/12/29 01:53:23;;;;;;;8.10;1.50;;;;;;;5.46;100.00;95005.16;5020314;28;20040;-86
2021/12/29 01:55:50;;;;;;;9.80;1.37;;;;;;;5.49;100.00;95010.06;5028474;28;20067;-87
2021/12/29 01:58:16;;;;;;;6.80;1.27;;;;;;;5.53;100.00;95015.78;5018710;28;20032;-87
2021/12/29 02:00:47;;;;;;;7.90;0.90;;;;;;;5.55;100.00;95014.66;5023365;28;20047;-88
2021/12/29 02:03:13;;;;;;;6.87;1.23;;;;;;;5.57;100.00;95022.34;5034421;28;20048;-88
2021/12/29 02:05:39;;;;;;;8.03;1.47;;;;;;;5.54;100.00;95030.47;5017879;28;20234;-87
2021/12/29 02:08:07;;;;;;;6.03;1.00;;;;;;;5.55;100.00;95026.88;5032549;28;20063;-87
2021/12/29 02:10:41;;;;;;;5.83;1.23;;;;;;;5.57;100.00;95035.38;5047036;28;20039;-89
2021/12/29 02:13:08;;;;;;;4.53;1.13;;;;;;;5.57;100.00;95028.38;5031228;28;20059;-89
2021/12/29 02:15:35;;;;;;;8.17;0.97;;;;;;;5.58;100.00;95031.78;5033549;28;20037;-88
2021/12/29 02:18:00;;;;;;;5.67;1.00;;;;;;;5.59;100.00;95034.22;5018349;28;20037;-89
2021/12/29 02:20:27;;;;;;;6.30;1.30;;;;;;;5.54;100.00;95039.09;5012717;28;20128;-89
2021/12/29 02:23:13;;;;;;;6.33;0.90;;;;;;;5.54;100.00;95051.34;5014321;28;20040;-89
2021/12/29 02:25:49;;;;;;;10.67;1.30;;;;;;;5.51;100.00;95055.06;5035451;28;20052;-88
2021/12/29 02:28:24;;;;;;;7.50;1.00;;;;;;;5.51;100.00;95051.66;5033683;28;20036;-89
2021/12/29 02:30:51;;;;;;;5.63;1.13;;;;;;;5.48;100.00;95057.16;5036531;28;20064;-89
2021/12/29 02:33:17;;;;;;;5.63;1.00;;;;;;;5.47;100.00;95068.59;5014973;28;20107;-88
2021/12/29 02:35:44;;;;;;;5.40;0.70;;;;;;;5.48;100.00;95078.03;5014244;28;20052;-88
2021/12/29 02:38:23;;;;;;;9.37;1.13;;;;;;;5.47;100.00;95081.63;5030138;28;20151;-88
2021/12/29 02:40:52;;;;;;;2.37;0.57;;;;;;;5.46;100.00;95091.22;5043742;28;20060;-88
2021/12/29 02:43:21;;;;;;;3.23;0.90;;;;;;;5.48;100.00;95098.88;5008056;28;20111;-88
2021/12/29 02:45:54;;;;;;;8.63;1.10;;;;;;;5.42;100.00;95098.53;5016522;28;21489;-88
2021/12/29 02:48:22;;;;;;;4.28;0.80;;;;;;;5.44;100.00;95101.81;5036302;28;20044;-88
2021/12/29 02:50:49;;;;;;;3.27;0.60;;;;;;;5.49;100.00;95114.38;5024694;28;20030;-88
2021/12/29 02:53:15;;;;;;;5.37;0.97;;;;;;;5.46;100.00;95111.25;5026397;28;20545;-88
2021/12/29 02:55:41;;;;;;;3.90;0.77;;;;;;;5.43;100.00;95108.00;5034899;28;20041;-88
2021/12/29 02:58:07;;;;;;;4.30;0.67;;;;;;;5.44;100.00;95114.03;5033299;28;20121;-87
2021/12/29 03:00:32;;;;;;;4.63;0.97;;;;;;;5.43;100.00;95118.44;5018582;28;20037;-88
2021/12/29 03:02:58;;;;;;;3.90;0.77;;;;;;;5.42;100.00;95121.19;5024974;28;20044;-87
2021/12/29 03:05:26;;;;;;;4.77;0.80;;;;;;;5.42;100.00;95126.38;5020016;28;20065;-87
2021/12/29 03:07:54;;;;;;;4.70;1.03;;;;;;;5.43;100.00;95117.59;5035349;28;20029;-87
2021/12/29 03:10:19;;;;;;;4.23;1.07;;;;;;;5.41;100.00;95128.19;5015105;28;20069;-87
2021/12/29 03:12:45;;;;;;;5.13;0.83;;;;;;;5.41;100.00;95136.00;5016370;28;20521;-88
2021/12/29 03:15:13;;;;;;;4.73;0.80;;;;;;;5.41;100.00;95143.00;5018580;28;20072;-88
2021/12/29 03:17:39;;;;;;;9.73;1.73;;;;;;;5.38;100.00;95153.75;5018983;28;20034;-88
2021/12/29 03:20:05;;;;;;;2.93;0.70;;;;;;;5.36;100.00;95146.06;5032729;28;20048;-87
2021/12/29 03:22:34;;;;;;;7.33;1.10;;;;;;;5.38;100.00;95162.38;5018874;28;20029;-87
2021/12/29 03:25:00;;;;;;;3.40;0.80;;;;;;;5.41;100.00;95167.28;5021963;28;20027;-87
2021/12/29 03:27:25;;;;;;;3.63;0.80;;;;;;;5.43;100.00;95160.16;5044244;28;20092;-88
2021/12/29 03:29:51;;;;;;;6.43;0.70;;;;;;;5.40;100.00;95159.63;5054743;28;20033;-88
2021/12/29 03:32:33;;;;;;;2.57;0.60;;;;;;;5.46;100.00;95147.75;5042562;28;20029;-88
2021/12/29 03:34:59;;;;;;;2.27;0.57;;;;;;;5.43;100.00;95154.94;5023297;28;20058;-88
2021/12/29 03:37:30;;;;;;;8.80;0.97;;;;;;;5.46;100.00;95169.44;5017386;28;20037;-88
2021/12/29 03:39:56;;;;;;;2.30;0.70;;;;;;;5.47;100.00;95160.66;5025102;28;20047;-88
2021/12/29 03:42:22;;;;;;;3.63;0.93;;;;;;;5.51;100.00;95169.00;4996204;28;20079;-89
2021/12/29 03:45:03;;;;;;;5.17;0.90;;;;;;;5.52;100.00;95168.00;4999928;28;20093;-89
2021/12/29 03:47:33;;;;;;;8.73;1.00;;;;;;;5.52;100.00;95183.66;5007582;28;20120;-88
2021/12/29 03:49:59;;;;;;;6.73;1.33;;;;;;;5.53;100.00;95195.72;5023022;28;20036;-87
2021/12/29 03:52:25;;;;;;;2.77;1.13;;;;;;;5.51;100.00;95197.66;5040919;28;20036;-88
2021/12/29 03:54:50;;;;;;;2.60;0.67;;;;;;;5.50;100.00;95199.47;5016058;28;20045;-89
2021/12/29 03:57:16;;;;;;;10.77;1.30;;;;;;;5.50;100.00;95196.84;5028582;28;20091;-88
2021/12/29 03:59:42;;;;;;;5.57;0.70;;;;;;;5.48;100.00;95203.19;5007562;28;20032;-89
2021/12/29 04:02:12;;;;;;;4.77;0.70;;;;;;;5.52;100.00;95194.91;5022005;28;20487;-89
2021/12/29 04:04:38;;;;;;;4.07;0.80;;;;;;;5.53;100.00;95200.94;5030047;28;20045;-88
2021/12/29 04:07:04;;;;;;;5.60;1.10;;;;;;;5.57;100.00;95203.09;5031016;28;20021;-88
2021/12/29 04:09:30;;;;;;;5.17;0.80;;;;;;;5.56;100.00;95206.66;5025313;28;20038;-88
2021/12/29 04:11:59;;;;;;;5.13;0.80;;;;;;;5.62;100.00;95211.25;5032742;28;20352;-89
2021/12/29 04:14:26;;;;;;;5.17;0.80;;;;;;;5.63;100.00;95215.53;5041576;28;20044;-88
2021/12/29 04:17:12;;;;;;;2.47;0.70;;;;;;;5.60;100.00;95231.47;5034982;28;20083;-88
2021/12/29 04:22:23;;;;;;;3.83;0.97;;;;;;;5.63;100.00;95233.78;5032412;28;20489;-87
2021/12/29 04:24:58;;;;;;;3.20;0.80;;;;;;;5.65;100.00;95238.84;5011346;28;20038;-87
2021/12/29 04:27:25;;;;;;;4.40;0.93;;;;;;;5.64;100.00;95245.84;5037844;28;20025;-87
2021/12/29 04:29:51;;;;;;;4.10;0.50;;;;;;;5.61;100.00;95235.72;5020791;28;20043;-87
2021/12/29 04:32:18;;;;;;;4.43;0.87;;;;;;;5.58;100.00;95240.41;5030715;28;20048;-87
2021/12/29 04:34:44;;;;;;;3.77;0.80;;;;;;;5.61;100.00;95240.13;5002740;28;20025;-87
2021/12/29 04:37:13;;;;;;;4.27;0.80;;;;;;;5.59;100.00;95248.06;5023343;28;20080;-87
2021/12/29 04:39:38;;;;;;;1.93;0.60;;;;;;;5.59;100.00;95237.63;5029316;28;20032;-87
2021/12/29 04:42:05;;;;;;;2.60;0.50;;;;;;;5.59;100.00;95252.47;5029767;28;20538;-88
2021/12/29 04:44:38;;;;;;;3.93;1.00;;;;;;;5.58;100.00;95256.06;5037610;28;20022;-88
2021/12/29 04:47:03;;;;;;;4.45;0.65;;;;;;;5.59;100.00;95255.09;4996806;28;20025;-88
2021/12/29 04:49:39;;;;;;;3.53;0.60;;;;;;;5.55;100.00;95258.97;5012453;28;20032;-87
2021/12/29 04:52:13;;;;;;;3.27;0.60;;;;;;;5.54;100.00;95267.78;5049142;28;20033;-87
2021/12/29 04:54:39;;;;;;;1.83;0.63;;;;;;;5.54;100.00;95275.59;5029387;28;20038;-87
2021/12/29 04:57:15;;;;;;;4.13;0.80;;;;;;;5.53;100.00;95276.56;5045493;28;20041;-87
2021/12/29 04:59:41;;;;;;;3.73;0.70;;;;;;;5.54;100.00;95288.66;5021950;28;20035;-87
2021/12/29 05:02:09;;;;;;;4.20;1.00;;;;;;;5.49;100.00;95277.81;5016586;28;20033;-87
2021/12/29 05:04:45;;;;;;;5.30;0.93;;;;;;;5.53;100.00;95294.81;5034848;28;20567;-87
2021/12/29 05:09:56;;;;;;;1.40;0.70;;;;;;;5.51;100.00;95288.94;5039709;28;20053;-87
2021/12/29 05:12:22;;;;;;;7.07;0.70;;;;;;;5.55;100.00;95298.91;5042228;28;20075;-87
2021/12/29 05:14:47;;;;;;;2.63;0.67;;;;;;;5.50;100.00;95295.94;5019588;28;20060;-87
2021/12/29 05:17:13;;;;;;;3.10;0.90;;;;;;;5.51;100.00;95292.38;5032979;28;20060;-87
2021/12/29 05:19:52;;;;;;;3.70;1.40;;;;;;;5.50;100.00;95288.13;5044251;28;20021;-87
2021/12/29 05:22:18;;;;;;;2.87;0.87;;;;;;;5.48;100.00;95273.59;5033911;28;20038;-87
2021/12/29 05:24:44;;;;;;;5.07;0.80;;;;;;;5.47;100.00;95290.22;5033370;28;20029;-86
2021/12/29 05:27:13;;;;;;;3.97;0.70;;;;;;;5.49;100.00;95290.88;5031966;28;20046;-87
2021/12/29 05:29:39;;;;;;;5.70;0.97;;;;;;;5.51;100.00;95312.41;5040086;28;20116;-87
2021/12/29 05:32:17;;;;;;;4.83;0.80;;;;;;;5.52;100.00;95312.25;5040456;28;20163;-87
2021/12/29 05:34:43;;;;;;;3.10;0.80;;;;;;;5.55;100.00;95313.75;5022856;28;20048;-88
2021/12/29 05:37:09;;;;;;;2.90;0.80;;;;;;;5.55;100.00;95305.91;5000065;28;20034;-87
2021/12/29 05:39:34;;;;;;;4.40;0.73;;;;;;;5.58;100.00;95314.25;5019807;28;20021;-87
2021/12/29 05:42:00;;;;;;;3.60;1.00;;;;;;;5.63;100.00;95314.63;5028048;28;20029;-87
2021/12/29 05:47:52;;;;;;;1.07;0.40;;;;;;;5.60;100.00;95319.31;5029088;28;20091;-87
2021/12/29 05:50:43;;;;;;;1.30;0.37;;;;;;;5.56;100.00;95317.97;5034813;28;20040;-87
2021/12/29 05:53:09;;;;;;;5.20;0.80;;;;;;;5.54;100.00;95327.75;5037787;28;20049;-86
2021/12/29 05:55:41;;;;;;;3.43;0.70;;;;;;;5.53;100.00;95331.31;5042786;28;20898;-87
2021/12/29 05:58:09;;;;;;;9.30;2.55;;;;;;;5.55;100.00;95339.81;5031508;28;20029;-87
2021/12/29 06:00:37;;;;;;;5.17;0.70;;;;;;;5.55;100.00;95339.81;5028820;28;20037;-87
2021/12/29 06:03:03;;;;;;;1.63;0.47;;;;;;;5.54;100.00;95340.81;5004100;28;20029;-87
2021/12/29 06:05:29;;;;;;;3.87;0.50;;;;;;;5.52;100.00;95351.38;5034979;28;20585;-86
2021/12/29 06:07:55;;;;;;;2.00;0.30;;;;;;;5.53;100.00;95362.59;5031741;28;20037;-87
2021/12/29 06:10:21;;;;;;;1.43;0.40;;;;;;;5.54;100.00;95370.31;5041782;28;20033;-87
2021/12/29 06:12:47;;;;;;;2.63;0.60;;;;;;;5.53;100.00;95370.44;5009532;28;20030;-87
2021/12/29 06:15:13;;;;;;;2.53;0.43;;;;;;;5.53;100.00;95367.81;5024797;28;20032;-87
2021/12/29 06:17:39;;;;;;;0.60;0.30;;;;;;;5.55;100.00;95371.94;5035158;28;20123;-87
2021/12/29 06:20:25;;;;;;;3.67;0.80;;;;;;;5.53;100.00;95375.66;5045418;28;20045;-87
2021/12/29 06:22:51;;;;;;;2.80;0.40;;;;;;;5.51;100.00;95381.03;5017964;28;20098;-86
2021/12/29 06:25:18;;;;;;;1.77;0.47;;;;;;;5.46;100.00;95378.03;5019951;28;20040;-87
2021/12/29 06:27:44;;;;;;;2.07;0.57;;;;;;;5.48;100.00;95388.34;5036126;28;20487;-87
2021/12/29 06:30:13;;;;;;;3.00;1.20;;;;;;;5.48;100.00;95381.31;5015288;28;20030;-87
2021/12/29 06:32:39;;;;;;;3.27;0.87;;;;;;;5.44;100.00;95390.41;5022401;28;20029;-87
2021/12/29 06:35:15;;;;;;;1.23;0.30;;;;;;;5.47;100.00;95386.69;5000153;28;20070;-87
2021/12/29 06:37:42;;;;;;;0.70;0.37;;;;;;;5.44;100.00;95386.00;5034370;28;20177;-87
2021/12/29 06:40:10;;;;;;;2.90;0.47;;;;;;;5.48;100.00;95391.75;5033738;28;20033;-88
2021/12/29 06:42:58;;;;;;;0.70;0.30;;;;;;;5.46;100.00;95398.91;5028300;28;20033;-86
2021/12/29 06:45:26;;;;;;;1.40;0.50;;;;;;;5.47;100.00;95384.09;5031600;28;20034;-87
2021/12/29 06:47:52;;;;;;;2.40;1.03;;;;;;;5.45;100.00;95389.44;5035287;28;20032;-87
2021/12/29 06:50:18;;;;;;;1.30;0.30;;;;;;;5.43;100.00;95393.97;5004694;28;20029;-87
2021/12/29 06:52:45;;;;;;;2.20;0.60;;;;;;;5.46;100.00;95408.50;5022120;28;20029;-87
2021/12/29 06:55:11;;;;;;;1.90;0.30;;;;;;;5.52;100.00;95418.34;4999802;28;20156;-87
2021/12/29 06:57:40;;;;;;;2.47;0.20;;;;;;;5.53;100.00;95409.56;5014141;28;20140;-87
2021/12/29 07:00:27;;;;;;;10.87;5.63;;;;;;;5.50;100.00;95421.13;5043144;28;20044;-87
2021/12/29 07:02:54;;;;;;;1.07;0.60;;;;;;;5.51;100.00;95420.16;5046449;28;20128;-87
2021/12/29 07:05:20;;;;;;;3.60;0.30;;;;;;;5.56;100.00;95424.91;5046733;28;20056;-87
2021/12/29 07:07:49;;;;;;;1.80;0.20;;;;;;;5.55;100.00;95431.09;5029967;28;20013;-87
2021/12/29 07:10:19;;;;;;;1.37;0.20;;;;;;;5.54;100.00;95434.69;5050985;28;20033;-87
2021/12/29 07:12:44;;;;;;;0.93;0.40;;;;;;;5.57;100.00;95442.22;5034327;28;20041;-87
2021/12/29 07:19:16;;;;;;;0.63;0.20;;;;;;;5.58;100.00;95452.50;5032562;28;20478;-87
2021/12/29 07:21:47;;;;;;;0.90;0.20;;;;;;;5.55;100.00;95465.81;5027425;28;20033;-87
2021/12/29 07:24:14;;;;;;;2.40;0.50;;;;;;;5.55;100.00;95465.00;5030602;28;20029;-86
2021/12/29 07:26:40;;;;;;;0.60;0.20;;;;;;;5.51;100.00;95458.44;5036964;28;20669;-86
2021/12/29 07:29:09;;;;;;;0.10;0.10;;;;;;;5.46;100.00;95473.69;5039013;28;20124;-86
2021/12/29 07:31:39;;;;;;;2.07;0.40;;;;;;;5.49;100.00;95482.03;5033982;28;20452;-85
2021/12/29 07:34:07;;;;;;;1.03;0.30;;;;;;;5.43;100.00;95478.25;5033928;28;20037;-84
2021/12/29 07:36:36;;;;;;;3.40;0.40;;;;;;;5.42;100.00;95487.03;4995964;28;20029;-85
2021/12/29 07:39:03;;;;;;;1.60;0.30;;;;;;;5.42;100.00;95488.81;5012419;28;20033;-86
2021/12/29 07:41:29;;;;;;;1.40;0.30;;;;;;;5.44;100.00;95490.31;5016402;28;20052;-86
2021/12/29 07:43:59;;;;;;;4.50;0.60;;;;;;;5.42;100.00;95483.59;5007451;28;20132;-87
2021/12/29 07:46:27;;;;;;;1.20;0.60;;;;;;;5.43;100.00;95482.63;5028222;28;20103;-85
2021/12/29 07:48:57;;;;;;;7.57;3.50;;;;;;;5.41;100.00;95480.19;5012538;28;20029;-86
2021/12/29 07:51:25;;;;;;;2.33;0.90;;;;;;;5.42;100.00;95481.81;5012466;28;20476;-85
2021/12/29 07:53:51;;;;;;;1.87;0.50;;;;;;;5.42;100.00;95492.25;5011486;28;20048;-86
2021/12/29 07:56:37;;;;;;;1.10;0.57;;;;;;;5.41;100.00;95498.44;5029078;28;20033;-86
2021/12/29 07:59:03;;;;;;;2.13;0.43;;;;;;;5.38;100.00;95497.91;5020788;28;20038;-86
2021/12/29 08:01:28;;;;;;;1.13;0.50;;;;;;;5.38;100.00;95509.16;5031892;28;20097;-85
2021/12/29 08:03:54;;;;;;;2.07;0.50;;;;;;;5.42;100.00;95507.88;5034800;28;20093;-86
2021/12/29 08:06:20;;;;;;;4.03;0.77;;;;;;;5.42;100.00;95507.06;5027721;28;20036;-86
2021/12/29 08:08:46;;;;;;;2.50;1.47;;;;;;;5.41;100.00;95510.66;5010643;28;20052;-86
2021/12/29 08:11:12;;;;;;;4.63;2.23;;;;;;;5.43;100.00;95512.16;5031618;28;20086;-86
2021/12/29 08:13:38;;;;;;;5.73;2.47;;;;;;;5.42;100.00;95510.50;5044315;28;20621;-86
2021/12/29 08:16:05;;;;;;;6.67;1.40;;;;;;;5.46;100.00;95520.63;5031464;28;20033;-87
2021/12/29 08:18:31;;;;;;;2.20;0.80;;;;;;;5.44;100.00;95521.59;5013346;28;20033;-85
2021/12/29 08:20:57;;;;;;;1.87;0.80;;;;;;;5.47;100.00;95519.69;5010462;28;20037;-86
2021/12/29 08:23:23;;;;;;;3.03;0.83;;;;;;;5.50;100.00;95524.59;5013296;28;20033;-86
2021/12/29 08:25:49;;;;;;;4.20;1.00;;;;;;;5.51;100.00;95528.84;5034246;28;20033;-86
2021/12/29 08:28:17;;;;;;;3.90;1.10;;;;;;;5.54;100.00;95521.56;5015025;28;20042;-86
2021/12/29 08:30:44;;;;;;;4.50;1.03;;;;;;;5.63;100.00;95525.06;5036639;28;20064;-88
2021/12/29 08:33:10;;;;;;;5.40;1.33;;;;;;;5.72;100.00;95520.78;5012382;28;20108;-87
2021/12/29 08:35:57;;;;;;;3.13;1.07;;;;;;;5.72;100.00;95515.56;5027982;28;20037;-87
2021/12/29 08:38:23;;;;;;;2.90;1.40;;;;;;;5.97;100.00;95529.69;5005760;28;20068;-87
2021/12/29 08:40:51;;;;;;;3.60;1.00;;;;;;;6.01;100.00;95524.03;5012913;28;20542;-87
2021/12/29 08:43:17;;;;;;;5.37;0.97;;;;;;;5.95;100.00;95529.84;5012510;28;20029;-88
2021/12/29 08:46:38;;;;;;;7.40;1.10;;;;;;;6.00;100.00;95526.78;5019401;28;20053;-88
2021/12/29 08:50:36;;;;;;;5.67;2.90;;;;;;;5.98;100.00;95533.97;5025433;28;20088;-89
2021/12/29 08:53:40;;;;;;;3.33;1.20;;;;;;;5.99;100.00;95540.81;4976569;28;20049;-88
2021/12/29 09:03:59;;;;;;;9.10;1.70;;;;;;;6.01;100.00;95557.16;4979871;28;20045;-88
2021/12/29 09:06:24;;;;;;;4.00;1.13;;;;;;;6.07;100.00;95543.50;4997088;28;20466;-88
2021/12/29 09:08:50;;;;;;;5.63;1.20;;;;;;;6.09;100.00;95542.38;4988523;28;20045;-88
2021/12/29 09:11:20;;;;;;;3.73;1.30;;;;;;;6.21;100.00;95539.56;5028917;28;20037;-88
2021/12/29 09:13:54;;;;;;;5.27;1.40;;;;;;;6.22;100.00;95546.44;5012808;28;20049;-88
2021/12/29 09:16:20;;;;;;;4.60;1.10;;;;;;;6.16;100.00;95553.06;5007051;28;20622;-88
2021/12/29 09:18:48;;;;;;;8.23;3.60;;;;;;;6.28;100.00;95548.44;5000432;28;20044;-87
2021/12/29 09:21:16;;;;;;;8.03;1.30;;;;;;;6.19;100.00;95555.38;4995850;28;20095;-88
2021/12/29 09:30:42;;;;;;;8.20;1.30;;;;;;;6.27;100.00;95554.63;4949492;28;20037;-88
2021/12/29 09:33:08;;;;;;;7.50;1.27;;;;;;;6.49;100.00;95561.19;5012856;28;20034;-89
2021/12/29 09:35:35;;;;;;;5.20;1.80;;;;;;;6.54;100.00;95569.41;5030996;28;20533;-89
2021/12/29 09:38:01;;;;;;;3.60;0.90;;;;;;;6.50;100.00;95570.66;5016937;28;20199;-88
2021/12/29 09:40:28;;;;;;;7.17;1.67;;;;;;;6.46;100.00;95579.78;5037228;28;20063;-88
2021/12/29 09:42:55;;;;;;;7.20;2.73;;;;;;;6.46;100.00;95574.53;5015816;28;20052;-88
2021/12/29 09:45:27;;;;;;;6.03;1.10;;;;;;;6.43;100.00;95572.22;5036512;28;20092;-88
2021/12/29 09:47:56;;;;;;;4.03;0.97;;;;;;;6.43;100.00;95580.06;5032301;28;20021;-89
2021/12/29 09:51:00;;;;;;;12.43;5.43;;;;;;;6.42;100.00;95578.44;5031527;28;20429;-87
2021/12/29 09:53:38;;;;;;;9.67;3.90;;;;;;;6.36;100.00;95580.66;4929298;29;20055;-89
2021/12/29 09:56:05;;;;;;;6.65;2.95;;;;;;;6.40;100.00;95580.34;5013911;28;20041;-88
2021/12/29 09:58:30;;;;;;;6.43;1.30;;;;;;;6.36;100.00;95587.69;5012583;28;20494;-88
2021/12/29 10:00:59;;;;;;;4.80;1.13;;;;;;;6.44;100.00;95579.94;5028831;28;20043;-89
2021/12/29 10:03:27;;;;;;;7.70;0.97;;;;;;;6.57;100.00;95589.97;5038050;28;20037;-89
2021/12/29 10:05:57;;;;;;;5.47;1.40;;;;;;;6.56;100.00;95598.78;5032912;28;20554;-89
2021/12/29 10:08:34;;;;;;;7.20;1.10;;;;;;;6.52;100.00;95598.28;5036221;28;20045;-89
2021/12/29 10:11:07;;;;;;;6.37;1.20;;;;;;;6.53;100.00;95597.28;5017223;28;20468;-89
2021/12/29 10:13:35;;;;;;;7.05;1.98;;;;;;;6.47;100.00;95602.28;5004094;28;20068;-89
2021/12/29 10:16:13;;;;;;;7.20;1.67;;;;;;;6.54;100.00;95598.13;5024215;28;20077;-89
2021/12/29 10:18:48;;;;;;;6.00;1.20;;;;;;;6.52;100.00;95600.88;5004553;28;20041;-90
2021/12/29 10:21:17;;;;;;;7.87;1.70;;;;;;;6.49;100.00;95600.38;5038220;28;20045;-89
2021/12/29 10:23:48;;;;;;;16.23;5.07;;;;;;;6.49;100.00;95602.97;5037463;28;20113;-90
2021/12/29 10:26:25;;;;;;;8.23;3.17;;;;;;;6.49;100.00;95588.13;5033357;28;20589;-90
2021/12/29 10:29:08;;;;;;;11.60;4.67;;;;;;;6.52;100.00;95592.22;4998518;28;20053;-90
2021/12/29 10:31:41;;;;;;;7.32;2.50;;;;;;;6.54;100.00;95595.53;5014093;28;20044;-90
2021/12/29 10:34:13;;;;;;;4.80;1.83;;;;;;;6.53;100.00;95606.94;5022943;28;20105;-90
2021/12/29 10:37:04;;;;;;;5.80;2.30;;;;;;;6.47;100.00;95595.31;5013277;28;20090;-90
2021/12/29 10:39:41;;;;;;;4.03;1.37;;;;;;;6.46;100.00;95585.00;5033676;28;20021;-89
2021/12/29 10:46:21;;;;;;;6.17;2.10;;;;;;;6.37;100.00;95592.75;5051458;28;20044;-89
2021/12/29 10:48:51;;;;;;;11.70;2.70;;;;;;;6.60;100.00;95592.28;5050576;28;20071;-88
2021/12/29 10:51:18;;;;;;;4.50;1.40;;;;;;;6.51;100.00;95598.44;5045689;28;20041;-87
2021/12/29 10:53:44;;;;;;;6.33;1.17;;;;;;;6.48;100.00;95604.78;5030291;28;20557;-89
2021/12/29 10:56:25;;;;;;;4.60;1.33;;;;;;;6.37;100.00;95603.22;5016317;28;20052;-87
2021/12/29 10:58:53;;;;;;;11.20;5.40;;;;;;;6.42;100.00;95609.78;5031354;28;20068;-89
2021/12/29 11:01:39;;;;;;;8.60;1.47;;;;;;;6.27;100.00;95607.69;5030364;28;20045;-87
2021/12/29 11:04:05;;;;;;;5.10;2.03;;;;;;;6.35;100.00;95612.16;5015506;28;20041;-85
2021/12/29 11:06:49;;;;;;;3.83;1.50;;;;;;;6.31;100.00;95614.25;5016204;28;20035;-87
2021/12/29 11:09:39;;;;;;;10.40;5.07;;;;;;;6.61;100.00;95620.91;5003446;28;20056;-86
2021/12/29 11:12:12;;;;;;;4.97;1.90;;;;;;;6.69;100.00;95622.75;5034261;28;20107;-86
2021/12/29 11:14:43;;;;;;;7.20;0.97;;;;;;;6.89;100.00;95618.19;5029220;28;20116;-87
2021/12/29 11:17:27;;;;;;;4.23;1.03;;;;;;;7.08;100.00;95617.19;5034867;28;20037;-86
2021/12/29 11:19:59;;;;;;;5.33;1.53;;;;;;;7.02;100.00;95617.78;5032502;28;20540;-87
2021/12/29 11:22:32;;;;;;;5.77;1.77;;;;;;;7.02;100.00;95610.75;5025943;28;20721;-87
2021/12/29 11:25:00;;;;;;;4.60;0.95;;;;;;;6.98;100.00;95606.81;5006117;28;20144;-88
2021/12/29 11:27:30;;;;;;;7.07;1.93;;;;;;;7.25;100.00;95603.25;5045547;28;20048;-87
2021/12/29 11:30:03;;;;;;;3.27;1.13;;;;;;;7.32;100.00;95583.34;5027802;28;20530;-87
2021/12/29 11:32:35;;;;;;;5.75;1.60;;;;;;;7.44;100.00;95586.50;5014364;28;20025;-87
2021/12/29 11:35:08;;;;;;;3.00;0.75;;;;;;;7.26;100.00;95576.09;5031310;28;20036;-87
2021/12/29 11:37:38;;;;;;;11.48;5.15;;;;;;;7.28;100.00;95582.00;5028427;28;20037;-88
2021/12/29 11:40:08;;;;;;;10.27;5.40;;;;;;;7.39;100.00;95588.78;5028035;28;20148;-88
2021/12/29 11:42:42;;;;;;;7.40;1.80;;;;;;;7.56;100.00;95584.44;5011400;28;20174;-88
2021/12/29 11:45:10;;;;;;;5.13;1.53;;;;;;;7.60;100.00;95580.53;5028169;28;20809;-77
2021/12/29 11:47:36;;;;;;;6.50;1.27;;;;;;;7.54;100.00;95582.00;5024476;28;20076;-77
2021/12/29 11:50:04;;;;;;;2.57;0.97;;;;;;;7.68;100.00;95577.13;5006441;28;20456;-77
2021/12/29 11:53:04;;;;;;;4.47;1.37;;;;;;;7.64;100.00;95579.22;5028357;28;20557;-76
2021/12/29 11:55:33;;;;;;;3.97;1.33;;;;;;;7.72;100.00;95574.03;5022130;28;20037;-77
2021/12/29 11:58:10;;;;;;;2.47;1.10;;;;;;;7.67;100.00;95575.47;5032608;28;20399;-77
2021/12/29 12:00:36;;;;;;;3.47;0.93;;;;;;;7.73;100.00;95567.81;5038705;28;20045;-77
2021/12/29 12:03:15;;;;;;;7.13;1.27;;;;;;;7.86;100.00;95569.19;5030425;28;20033;-77
2021/12/29 12:05:49;;;;;;;2.93;1.13;;;;;;;7.86;100.00;95567.38;5009094;28;20068;-77
2021/12/29 12:08:24;;;;;;;4.23;1.20;;;;;;;7.75;100.00;95558.03;5026900;28;20033;-77
2021/12/29 12:10:51;;;;;;;3.87;0.77;;;;;;;7.75;100.00;95560.66;5026006;28;20487;-77
2021/12/29 12:13:34;;;;;;;3.20;1.20;;;;;;;7.73;100.00;95561.78;5010315;28;20025;-77
2021/12/29 12:16:14;;;;;;;3.90;1.13;;;;;;;7.76;100.00;95570.13;5010765;28;20034;-77
2021/12/29 12:18:43;;;;;;;4.90;1.53;;;;;;;7.74;100.00;95558.16;5023976;28;20033;-77
2021/12/29 12:21:20;;;;;;;6.70;3.03;;;;;;;7.75;100.00;95563.25;5027222;28;20089;-77
2021/12/29 12:23:47;;;;;;;9.77;4.00;;;;;;;7.62;100.00;95562.06;5021929;28;20455;-77
2021/12/29 12:26:13;;;;;;;6.60;2.77;;;;;;;7.73;100.00;95565.22;5008037;28;20056;-85
2021/12/29 12:28:51;;;;;;;5.50;2.20;;;;;;;7.66;100.00;95566.00;5008517;28;20600;-86
2021/12/29 12:31:32;;;;;;;6.87;1.17;;;;;;;7.51;100.00;95568.38;5025355;28;20060;-85
2021/12/29 12:34:13;;;;;;;7.27;1.40;;;;;;;7.53;100.00;95571.66;5028487;28;20029;-84
2021/12/29 12:36:47;;;;;;;5.73;1.40;;;;;;;7.47;100.00;95575.72;5028274;28;20565;-85
2021/12/29 12:39:16;;;;;;;5.13;1.60;;;;;;;7.46;100.00;95573.28;5008635;28;20279;-85
2021/12/29 12:41:45;;;;;;;8.43;2.20;;;;;;;7.39;100.00;95572.25;5029352;28;20041;-85
2021/12/29 12:44:12;;;;;;;5.30;1.40;;;;;;;7.46;100.00;95589.78;5026258;28;20045;-85
2021/12/29 12:46:43;;;;;;;4.53;1.43;;;;;;;7.76;100.00;95580.59;4994528;28;20041;-84